Time,TemperatureF,DewpointF,PressureIn,WindDirection,WindDirectionDegrees,WindSpeedMPH,WindSpeedGustMPH,Humidity,HourlyPrecipIn,Conditions,Clouds,dailyrainin,SoftwareType,DateUTC
2013-01-26 00:00:00,9.3,7.4,30.06,WSW,242,0.0,1.0,92,0.00,,CLR,0.00,VWS V14.01,2013-01-26 05:00:00,
2013-01-26 00:05:00,9.3,7.4,30.06,WSW,242,0.0,1.0,92,0.00,,CLR,0.00,VWS V14.01,2013-01-26 05:05:00,
2013-01-26 00:10:00,9.4,7.6,30.06,WSW,242,0.0,1.0,92,0.00,,CLR,0.00,VWS V14.01,2013-01-26 05:10:00,
2013-01-26 00:15:00,9.6,7.8,30.06,WSW,256,0.0,1.0,92,0.00,,CLR,0.00,VWS V14.01,2013-01-26 05:15:00,
2013-01-26 00:20:00,9.9,8.1,30.06,NW,316,0.0,1.0,92,0.00,,CLR,0.00,VWS V14.01,2013-01-26 05:20:00,
2013-01-26 00:25:00,10.1,8.2,30.06,NNW,346,0.0,3.0,92,0.00,,CLR,0.00,VWS V14.01,2013-01-26 05:25:00,
2013-01-26 00:30:00,10.2,8.3,30.06,NW,315,0.0,1.0,92,0.00,,CLR,0.00,VWS V14.01,2013-01-26 05:30:00,
2013-01-26 00:35:00,10.3,8.4,30.06,WSW,244,0.0,1.0,92,0.00,,CLR,0.00,VWS V14.01,2013-01-26 05:35:00,
2013-01-26 00:40:00,10.4,8.5,30.06,North,359,0.0,1.0,92,0.00,,CLR,0.00,VWS V14.01,2013-01-26 05:40:00,
2013-01-26 00:45:00,10.4,8.5,30.06,NW,318,0.0,0.0,92,0.00,,CLR,0.00,VWS V14.01,2013-01-26 05:45:00,
2013-01-26 00:50:00,10.5,8.6,30.05,WSW,249,0.0,1.0,92,0.00,,CLR,0.00,VWS V14.01,2013-01-26 05:50:00,
2013-01-26 00:55:00,10.5,8.6,30.05,West,277,0.0,4.0,92,0.00,,CLR,0.00,VWS V14.01,2013-01-26 05:55:00,
2013-01-26 01:00:00,10.6,8.7,30.05,WNW,291,1.0,3.0,92,0.00,,CLR,0.00,VWS V14.01,2013-01-26 06:00:00,
2013-01-26 01:05:00,10.6,8.7,30.06,NNW,329,0.0,3.0,92,0.00,,CLR,0.00,VWS V14.01,2013-01-26 06:05:00,
2013-01-26 01:10:00,10.5,8.6,30.06,NNW,344,0.0,3.0,92,0.00,,CLR,0.00,VWS V14.01,2013-01-26 06:10:00,
2013-01-26 01:15:00,10.4,8.5,30.06,North,1,0.0,0.0,92,0.00,,CLR,0.00,VWS V14.01,2013-01-26 06:15:00,
2013-01-26 01:20:00,10.3,8.2,30.06,North,350,0.0,1.0,91,0.00,,CLR,0.00,VWS V14.01,2013-01-26 06:20:00,
2013-01-26 01:25:00,10.2,8.1,30.06,WSW,243,0.0,1.0,91,0.00,,CLR,0.00,VWS V14.01,2013-01-26 06:25:00,
2013-01-26 01:30:00,10.1,8.0,30.06,NNE,19,0.0,1.0,91,0.00,,CLR,0.00,VWS V14.01,2013-01-26 06:30:00,
2013-01-26 01:35:00,10.1,8.2,30.06,North,359,0.0,1.0,92,0.00,,CLR,0.00,VWS V14.01,2013-01-26 06:35:00,
2013-01-26 01:40:00,10.0,7.9,30.06,North,352,0.0,1.0,91,0.00,,CLR,0.00,VWS V14.01,2013-01-26 06:40:00,
2013-01-26 01:45:00,10.0,8.1,30.05,West,274,0.0,1.0,92,0.00,,CLR,0.00,VWS V14.01,2013-01-26 06:45:00,
2013-01-26 01:50:00,10.1,8.2,30.05,WSW,245,0.0,3.0,92,0.00,,CLR,0.00,VWS V14.01,2013-01-26 06:50:00,
2013-01-26 01:55:00,10.1,8.0,30.05,NW,312,0.0,3.0,91,0.00,,CLR,0.00,VWS V14.01,2013-01-26 06:55:00,
2013-01-26 02:00:00,10.0,7.9,30.05,NNW,341,0.0,1.0,91,0.00,,CLR,0.00,VWS V14.01,2013-01-26 07:00:00,
2013-01-26 02:05:00,10.0,7.9,30.05,West,276,0.0,1.0,91,0.00,,CLR,0.00,VWS V14.01,2013-01-26 07:05:00,
2013-01-26 02:10:00,9.9,7.8,30.05,WSW,256,0.0,1.0,91,0.00,,CLR,0.00,VWS V14.01,2013-01-26 07:10:00,
2013-01-26 02:15:00,9.8,7.7,30.05,SW,222,0.0,2.0,91,0.00,,CLR,0.00,VWS V14.01,2013-01-26 07:15:00,
2013-01-26 02:20:00,9.7,7.6,30.05,North,350,0.0,2.0,91,0.00,,CLR,0.00,VWS V14.01,2013-01-26 07:20:00,
2013-01-26 02:25:00,9.6,7.5,30.05,NW,311,0.0,2.0,91,0.00,,CLR,0.00,VWS V14.01,2013-01-26 07:25:00,
2013-01-26 02:30:00,9.5,7.4,30.04,NE,40,0.0,1.0,91,0.00,,CLR,0.00,VWS V14.01,2013-01-26 07:30:00,
2013-01-26 02:35:00,9.4,7.3,30.04,North,3,0.0,1.0,91,0.00,,CLR,0.00,VWS V14.01,2013-01-26 07:35:00,
2013-01-26 02:40:00,9.3,7.2,30.04,North,354,0.0,1.0,91,0.00,,CLR,0.00,VWS V14.01,2013-01-26 07:40:00,
2013-01-26 02:45:00,9.4,7.3,30.04,NNE,18,3.0,6.0,91,0.00,,CLR,0.00,VWS V14.01,2013-01-26 07:45:00,
2013-01-26 02:50:00,9.4,7.3,30.04,NNE,16,1.0,6.0,91,0.00,,CLR,0.00,VWS V14.01,2013-01-26 07:50:00,
2013-01-26 02:55:00,9.4,7.3,30.04,NNE,32,0.0,6.0,91,0.00,,CLR,0.00,VWS V14.01,2013-01-26 07:55:00,
2013-01-26 03:00:00,9.3,7.2,30.04,North,352,0.0,1.0,91,0.00,,OVC032,0.00,VWS V14.01,2013-01-26 08:00:00,
2013-01-26 03:05:00,9.1,7.0,30.04,NNE,23,0.0,1.0,91,0.00,,OVC032,0.00,VWS V14.01,2013-01-26 08:05:00,
2013-01-26 03:10:00,8.9,6.8,30.04,NNW,335,1.0,1.0,91,0.00,,OVC032,0.00,VWS V14.01,2013-01-26 08:10:00,
2013-01-26 03:15:00,8.8,6.7,30.04,North,6,0.0,1.0,91,0.00,,OVC032,0.00,VWS V14.01,2013-01-26 08:15:00,
2013-01-26 03:20:00,8.8,6.7,30.04,ESE,103,0.0,4.0,91,0.00,,OVC032,0.00,VWS V14.01,2013-01-26 08:20:00,
2013-01-26 03:25:00,8.8,6.7,30.04,NW,323,2.0,5.0,91,0.00,,OVC032,0.00,VWS V14.01,2013-01-26 08:25:00,
2013-01-26 03:30:00,8.8,6.7,30.04,NW,307,1.0,3.0,91,0.00,,OVC032,0.00,VWS V14.01,2013-01-26 08:30:00,
2013-01-26 03:35:00,8.8,6.7,30.04,NE,50,0.0,4.0,91,0.00,,OVC032,0.00,VWS V14.01,2013-01-26 08:35:00,
2013-01-26 03:40:00,8.9,6.6,30.04,NNE,13,0.0,4.0,90,0.00,,OVC032,0.00,VWS V14.01,2013-01-26 08:40:00,
2013-01-26 03:45:00,8.9,6.6,30.04,NNW,338,5.0,5.0,90,0.00,,OVC032,0.00,VWS V14.01,2013-01-26 08:45:00,
2013-01-26 03:50:00,8.8,6.5,30.04,East,100,0.0,5.0,90,0.00,,OVC032,0.00,VWS V14.01,2013-01-26 08:50:00,
2013-01-26 03:55:00,8.8,6.5,30.04,WNW,290,0.0,5.0,90,0.00,,OVC032,0.00,VWS V14.01,2013-01-26 08:55:00,
2013-01-26 04:00:00,8.7,6.4,30.04,WNW,294,0.0,0.0,90,0.00,,SCT032,0.00,VWS V14.01,2013-01-26 09:00:00,
2013-01-26 04:05:00,8.6,6.3,30.05,NNW,329,0.0,1.0,90,0.00,,SCT032,0.00,VWS V14.01,2013-01-26 09:05:00,
2013-01-26 04:10:00,8.5,6.2,30.05,West,271,0.0,1.0,90,0.00,,SCT032,0.00,VWS V14.01,2013-01-26 09:10:00,
2013-01-26 04:15:00,8.5,6.2,30.05,NW,315,0.0,1.0,90,0.00,,SCT032,0.00,VWS V14.01,2013-01-26 09:15:00,
2013-01-26 04:20:00,8.5,6.2,30.05,North,3,0.0,4.0,90,0.00,,SCT032,0.00,VWS V14.01,2013-01-26 09:20:00,
2013-01-26 04:25:00,8.4,6.1,30.05,NW,308,0.0,4.0,90,0.00,,SCT032,0.00,VWS V14.01,2013-01-26 09:25:00,
2013-01-26 04:30:00,8.4,6.1,30.05,North,9,0.0,0.0,90,0.00,,SCT032,0.00,VWS V14.01,2013-01-26 09:30:00,
2013-01-26 04:35:00,8.3,6.0,30.05,WNW,294,0.0,1.0,90,0.00,,SCT032,0.00,VWS V14.01,2013-01-26 09:35:00,
2013-01-26 04:40:00,8.4,6.1,30.05,NE,46,1.0,2.0,90,0.00,,SCT032,0.00,VWS V14.01,2013-01-26 09:40:00,
2013-01-26 04:45:00,8.4,6.1,30.06,WSW,238,0.0,1.0,90,0.00,,SCT032,0.00,VWS V14.01,2013-01-26 09:45:00,
2013-01-26 04:50:00,8.4,6.1,30.06,WNW,297,0.0,2.0,90,0.00,,SCT032,0.00,VWS V14.01,2013-01-26 09:50:00,
2013-01-26 04:55:00,8.6,6.3,30.06,NW,322,2.0,3.0,90,0.00,,SCT032,0.00,VWS V14.01,2013-01-26 09:55:00,
2013-01-26 05:00:00,8.6,6.0,30.06,South,177,0.0,2.0,89,0.00,,CLR,0.00,VWS V14.01,2013-01-26 10:00:00,
2013-01-26 05:05:00,8.7,6.1,30.07,North,8,0.0,3.0,89,0.00,,CLR,0.00,VWS V14.01,2013-01-26 10:05:00,
2013-01-26 05:10:00,8.7,6.1,30.07,North,1,0.0,4.0,89,0.00,,CLR,0.00,VWS V14.01,2013-01-26 10:10:00,
2013-01-26 05:15:00,8.8,6.2,30.07,NNW,330,0.0,0.0,89,0.00,,CLR,0.00,VWS V14.01,2013-01-26 10:15:00,
2013-01-26 05:20:00,8.8,6.2,30.07,NNW,332,0.0,4.0,89,0.00,,CLR,0.00,VWS V14.01,2013-01-26 10:20:00,
2013-01-26 05:25:00,8.8,6.2,30.07,NNE,15,1.0,4.0,89,0.00,,CLR,0.00,VWS V14.01,2013-01-26 10:25:00,
2013-01-26 05:30:00,8.9,6.3,30.07,NE,43,0.0,0.0,89,0.00,,CLR,0.00,VWS V14.01,2013-01-26 10:30:00,
2013-01-26 05:35:00,9.0,6.4,30.07,North,9,1.0,3.0,89,0.00,,CLR,0.00,VWS V14.01,2013-01-26 10:35:00,
2013-01-26 05:40:00,9.0,6.4,30.07,NNE,13,0.0,3.0,89,0.00,,CLR,0.00,VWS V14.01,2013-01-26 10:40:00,
2013-01-26 05:45:00,8.9,6.3,30.07,WSW,253,0.0,0.0,89,0.00,,CLR,0.00,VWS V14.01,2013-01-26 10:45:00,
2013-01-26 05:50:00,8.9,6.3,30.08,NE,39,2.0,3.0,89,0.00,,CLR,0.00,VWS V14.01,2013-01-26 10:50:00,
2013-01-26 05:55:00,9.0,6.4,30.08,NNE,23,0.0,3.0,89,0.00,,CLR,0.00,VWS V14.01,2013-01-26 10:55:00,
2013-01-26 06:00:00,9.0,6.4,30.08,North,359,3.0,3.0,89,0.00,,CLR,0.00,VWS V14.01,2013-01-26 11:00:00,
2013-01-26 06:05:00,9.0,6.2,30.08,West,259,0.0,4.0,88,0.00,,CLR,0.00,VWS V14.01,2013-01-26 11:05:00,
2013-01-26 06:10:00,9.0,6.2,30.08,North,352,1.0,4.0,88,0.00,,CLR,0.00,VWS V14.01,2013-01-26 11:10:00,
2013-01-26 06:15:00,9.0,6.2,30.08,NNW,340,0.0,0.0,88,0.00,,CLR,0.00,VWS V14.01,2013-01-26 11:15:00,
2013-01-26 06:20:00,8.9,6.1,30.08,NNW,343,1.0,2.0,88,0.00,,CLR,0.00,VWS V14.01,2013-01-26 11:20:00,
2013-01-26 06:25:00,8.9,6.1,30.08,West,276,0.0,2.0,88,0.00,,CLR,0.00,VWS V14.01,2013-01-26 11:25:00,
2013-01-26 06:30:00,8.9,6.1,30.08,NW,306,1.0,2.0,88,0.00,,CLR,0.00,VWS V14.01,2013-01-26 11:30:00,
2013-01-26 06:35:00,8.8,6.0,30.09,North,6,1.0,2.0,88,0.00,,CLR,0.00,VWS V14.01,2013-01-26 11:35:00,
2013-01-26 06:40:00,8.8,6.0,30.09,NNW,334,0.0,3.0,88,0.00,,CLR,0.00,VWS V14.01,2013-01-26 11:40:00,
2013-01-26 06:45:00,8.7,5.9,30.09,North,11,0.0,0.0,88,0.00,,CLR,0.00,VWS V14.01,2013-01-26 11:45:00,
2013-01-26 06:50:00,8.5,5.7,30.10,NW,309,0.0,1.0,88,0.00,,CLR,0.00,VWS V14.01,2013-01-26 11:50:00,
2013-01-26 06:55:00,8.4,5.6,30.10,North,355,1.0,2.0,88,0.00,,CLR,0.00,VWS V14.01,2013-01-26 11:55:00,
2013-01-26 07:00:00,8.4,5.6,30.11,NNE,21,0.0,0.0,88,0.00,,CLR,0.00,VWS V14.01,2013-01-26 12:00:00,
2013-01-26 07:05:00,8.4,5.6,30.11,ENE,70,0.0,2.0,88,0.00,,CLR,0.00,VWS V14.01,2013-01-26 12:05:00,
2013-01-26 07:10:00,8.4,5.6,30.11,North,359,0.0,2.0,88,0.00,,CLR,0.00,VWS V14.01,2013-01-26 12:10:00,
2013-01-26 07:15:00,8.4,5.6,30.11,SW,229,0.0,0.0,88,0.00,,CLR,0.00,VWS V14.01,2013-01-26 12:15:00,
2013-01-26 07:20:00,8.4,5.6,30.11,North,352,1.0,4.0,88,0.00,,CLR,0.00,VWS V14.01,2013-01-26 12:20:00,
2013-01-26 07:25:00,8.6,5.8,30.11,NNW,336,0.0,4.0,88,0.00,,CLR,0.00,VWS V14.01,2013-01-26 12:25:00,
2013-01-26 07:30:00,8.8,6.0,30.11,NNW,335,0.0,0.0,88,0.00,,CLR,0.00,VWS V14.01,2013-01-26 12:30:00,
2013-01-26 07:35:00,9.1,6.3,30.12,North,359,1.0,3.0,88,0.00,,CLR,0.00,VWS V14.01,2013-01-26 12:35:00,
2013-01-26 07:40:00,9.4,6.6,30.12,WNW,287,0.0,3.0,88,0.00,,CLR,0.00,VWS V14.01,2013-01-26 12:40:00,
2013-01-26 07:45:00,9.7,6.9,30.12,West,264,0.0,0.0,88,0.00,,CLR,0.00,VWS V14.01,2013-01-26 12:45:00,
2013-01-26 07:50:00,10.2,7.4,30.13,North,349,0.0,1.0,88,0.00,,CLR,0.00,VWS V14.01,2013-01-26 12:50:00,
2013-01-26 07:55:00,10.8,7.9,30.13,West,278,0.0,2.0,88,0.00,,CLR,0.00,VWS V14.01,2013-01-26 12:55:00,
2013-01-26 08:00:00,11.1,8.0,30.13,WNW,302,1.0,1.0,87,0.00,,CLR,0.00,VWS V14.01,2013-01-26 13:00:00,
2013-01-26 08:05:00,11.7,8.6,30.13,NNW,336,0.0,2.0,87,0.00,,CLR,0.00,VWS V14.01,2013-01-26 13:05:00,
2013-01-26 08:10:00,12.2,8.8,30.13,NW,316,0.0,2.0,86,0.00,,CLR,0.00,VWS V14.01,2013-01-26 13:10:00,
2013-01-26 08:15:00,13.0,9.6,30.13,WSW,248,0.0,0.0,86,0.00,,CLR,0.00,VWS V14.01,2013-01-26 13:15:00,
2013-01-26 08:20:00,13.8,10.1,30.13,WSW,246,0.0,3.0,85,0.00,,CLR,0.00,VWS V14.01,2013-01-26 13:20:00,
2013-01-26 08:25:00,14.2,10.0,30.14,South,183,0.0,4.0,83,0.00,,CLR,0.00,VWS V14.01,2013-01-26 13:25:00,
2013-01-26 08:30:00,13.9,9.4,30.14,SW,232,1.0,3.0,82,0.00,,CLR,0.00,VWS V14.01,2013-01-26 13:30:00,
2013-01-26 08:35:00,13.4,8.7,30.14,NW,326,0.0,3.0,81,0.00,,CLR,0.00,VWS V14.01,2013-01-26 13:35:00,
2013-01-26 08:40:00,12.8,8.1,30.14,West,281,1.0,7.0,81,0.00,,CLR,0.00,VWS V14.01,2013-01-26 13:40:00,
2013-01-26 08:45:00,12.4,8.0,30.14,North,8,2.0,6.0,82,0.00,,CLR,0.00,VWS V14.01,2013-01-26 13:45:00,
2013-01-26 08:50:00,12.6,8.4,30.14,West,278,1.0,6.0,83,0.00,,CLR,0.00,VWS V14.01,2013-01-26 13:50:00,
2013-01-26 08:55:00,12.8,8.6,30.14,NNW,342,3.0,6.0,83,0.00,,CLR,0.00,VWS V14.01,2013-01-26 13:55:00,
2013-01-26 09:00:00,12.8,8.4,30.13,North,358,0.0,1.0,82,0.00,,CLR,0.00,VWS V14.01,2013-01-26 14:00:00,
2013-01-26 09:05:00,13.0,8.8,30.14,North,350,0.0,4.0,83,0.00,,CLR,0.00,VWS V14.01,2013-01-26 14:05:00,
2013-01-26 09:10:00,12.9,8.4,30.14,SW,234,0.0,8.0,82,0.00,,CLR,0.00,VWS V14.01,2013-01-26 14:10:00,
2013-01-26 09:15:00,12.9,8.2,30.14,NW,319,0.0,2.0,81,0.00,,CLR,0.00,VWS V14.01,2013-01-26 14:15:00,
2013-01-26 09:20:00,13.1,8.6,30.14,WSW,253,2.0,4.0,82,0.00,,CLR,0.00,VWS V14.01,2013-01-26 14:20:00,
2013-01-26 09:25:00,13.1,8.6,30.14,North,3,2.0,6.0,82,0.00,,CLR,0.00,VWS V14.01,2013-01-26 14:25:00,
2013-01-26 09:30:00,13.2,8.5,30.15,West,281,0.0,0.0,81,0.00,,CLR,0.00,VWS V14.01,2013-01-26 14:30:00,
2013-01-26 09:35:00,13.3,8.6,30.15,South,174,0.0,6.0,81,0.00,,CLR,0.00,VWS V14.01,2013-01-26 14:35:00,
2013-01-26 09:40:00,13.3,8.6,30.15,NNE,29,3.0,7.0,81,0.00,,CLR,0.00,VWS V14.01,2013-01-26 14:40:00,
2013-01-26 09:45:00,13.5,8.5,30.15,North,352,1.0,3.0,80,0.00,,CLR,0.00,VWS V14.01,2013-01-26 14:45:00,
2013-01-26 09:50:00,13.7,8.7,30.15,West,271,2.0,8.0,80,0.00,,CLR,0.00,VWS V14.01,2013-01-26 14:50:00,
2013-01-26 09:55:00,13.9,9.2,30.16,NW,312,2.0,8.0,81,0.00,,CLR,0.00,VWS V14.01,2013-01-26 14:55:00,
2013-01-26 10:00:00,14.1,9.1,30.16,West,271,1.0,5.0,80,0.00,,CLR,0.00,VWS V14.01,2013-01-26 15:00:00,
2013-01-26 10:05:00,14.3,9.0,30.16,North,8,4.0,9.0,79,0.00,,BKN100,0.00,VWS V14.01,2013-01-26 15:05:00,
2013-01-26 10:10:00,14.3,8.7,30.16,NNE,19,6.0,9.0,78,0.00,,BKN100,0.00,VWS V14.01,2013-01-26 15:10:00,
2013-01-26 10:15:00,14.4,8.8,30.16,SW,232,3.0,4.0,78,0.00,,BKN100,0.00,VWS V14.01,2013-01-26 15:15:00,
2013-01-26 10:20:00,14.7,9.1,30.16,WSW,240,1.0,5.0,78,0.00,,BKN100,0.00,VWS V14.01,2013-01-26 15:20:00,
2013-01-26 10:25:00,14.9,9.0,30.16,East,79,2.0,6.0,77,0.00,,BKN100,0.00,VWS V14.01,2013-01-26 15:25:00,
2013-01-26 10:30:00,15.2,9.3,30.16,West,280,1.0,1.0,77,0.00,,BKN100,0.00,VWS V14.01,2013-01-26 15:30:00,
2013-01-26 10:35:00,15.4,8.9,30.16,NNW,335,3.0,8.0,75,0.00,,BKN100,0.00,VWS V14.01,2013-01-26 15:35:00,
2013-01-26 10:40:00,15.6,8.8,30.16,SSW,198,2.0,8.0,74,0.00,,BKN100,0.00,VWS V14.01,2013-01-26 15:40:00,
2013-01-26 10:45:00,15.7,8.6,30.16,SW,232,0.0,2.0,73,0.00,,BKN100,0.00,VWS V14.01,2013-01-26 15:45:00,
2013-01-26 10:50:00,16.1,9.0,30.16,NNW,333,3.0,11.0,73,0.00,,BKN100,0.00,VWS V14.01,2013-01-26 15:50:00,
2013-01-26 10:55:00,16.2,8.5,30.16,NNE,26,8.0,11.0,71,0.00,,BKN100,0.00,VWS V14.01,2013-01-26 15:55:00,
2013-01-26 11:00:00,16.2,8.1,30.16,WNW,283,6.0,6.0,70,0.00,,BKN100,0.00,VWS V14.01,2013-01-26 16:00:00,
2013-01-26 11:05:00,16.1,7.7,30.16,NNE,21,2.0,9.0,69,0.00,,OVC100,0.00,VWS V14.01,2013-01-26 16:05:00,
2013-01-26 11:10:00,16.2,7.8,30.16,North,9,4.0,9.0,69,0.00,,OVC100,0.00,VWS V14.01,2013-01-26 16:10:00,
2013-01-26 11:15:00,16.4,8.0,30.17,West,264,1.0,2.0,69,0.00,,OVC100,0.00,VWS V14.01,2013-01-26 16:15:00,
2013-01-26 11:20:00,16.5,7.8,30.17,NE,53,6.0,8.0,68,0.00,,OVC100,0.00,VWS V14.01,2013-01-26 16:20:00,
2013-01-26 11:25:00,16.6,7.9,30.17,North,11,3.0,10.0,68,0.00,,OVC100,0.00,VWS V14.01,2013-01-26 16:25:00,
2013-01-26 11:30:00,16.7,7.7,30.17,North,8,4.0,4.0,67,0.00,,OVC100,0.00,VWS V14.01,2013-01-26 16:30:00,
2013-01-26 11:35:00,17.1,8.1,30.17,North,351,3.0,11.0,67,0.00,,OVC100,0.00,VWS V14.01,2013-01-26 16:35:00,
2013-01-26 11:40:00,17.3,8.2,30.17,North,11,7.0,11.0,67,0.00,,OVC100,0.00,VWS V14.01,2013-01-26 16:40:00,
2013-01-26 11:45:00,17.4,8.3,30.16,North,357,7.0,7.0,67,0.00,,OVC100,0.00,VWS V14.01,2013-01-26 16:45:00,
2013-01-26 11:50:00,17.7,8.6,30.16,NNE,20,8.0,11.0,67,0.00,,OVC100,0.00,VWS V14.01,2013-01-26 16:50:00,
2013-01-26 11:55:00,17.9,8.5,30.16,NNE,25,5.0,12.0,66,0.00,,OVC100,0.00,VWS V14.01,2013-01-26 16:55:00,
2013-01-26 12:00:00,18.1,8.3,30.16,NNW,335,2.0,2.0,65,0.00,,OVC100,0.00,VWS V14.01,2013-01-26 17:00:00,
2013-01-26 12:05:00,18.5,9.1,30.16,WNW,287,0.0,11.0,66,0.00,,BKN100,0.00,VWS V14.01,2013-01-26 17:05:00,
2013-01-26 12:10:00,19.0,8.5,30.15,NNE,14,9.0,11.0,63,0.00,,BKN100,0.00,VWS V14.01,2013-01-26 17:10:00,
2013-01-26 12:15:00,18.6,8.1,30.15,West,278,7.0,8.0,63,0.00,,BKN100,0.00,VWS V14.01,2013-01-26 17:15:00,
2013-01-26 12:20:00,18.3,7.5,30.15,North,350,3.0,12.0,62,0.00,,BKN100,0.00,VWS V14.01,2013-01-26 17:20:00,
2013-01-26 12:25:00,18.1,7.3,30.14,North,11,8.0,12.0,62,0.00,,BKN100,0.00,VWS V14.01,2013-01-26 17:25:00,
2013-01-26 12:30:00,18.4,8.3,30.14,NNW,345,2.0,2.0,64,0.00,,BKN100,0.00,VWS V14.01,2013-01-26 17:30:00,
2013-01-26 12:35:00,18.9,8.1,30.14,North,11,7.0,12.0,62,0.00,,BKN100,0.00,VWS V14.01,2013-01-26 17:35:00,
2013-01-26 12:40:00,19.2,9.0,30.13,ESE,104,2.0,12.0,64,0.00,,BKN100,0.00,VWS V14.01,2013-01-26 17:40:00,
2013-01-26 12:45:00,19.6,8.0,30.13,SW,228,2.0,4.0,60,0.00,,BKN100,0.00,VWS V14.01,2013-01-26 17:45:00,
2013-01-26 12:50:00,19.9,7.9,30.13,North,8,2.0,11.0,59,0.00,,BKN100,0.00,VWS V14.01,2013-01-26 17:50:00,
2013-01-26 12:55:00,20.2,8.2,30.14,NNE,13,4.0,11.0,59,0.00,,BKN100,0.00,VWS V14.01,2013-01-26 17:55:00,
2013-01-26 13:00:00,20.7,8.3,30.14,NNE,13,8.0,8.0,58,0.00,,BKN100,0.00,VWS V14.01,2013-01-26 18:00:00,
2013-01-26 13:05:00,20.7,8.6,30.14,ENE,60,4.0,11.0,59,0.00,,CLR,0.00,VWS V14.01,2013-01-26 18:05:00,
2013-01-26 13:10:00,20.7,7.9,30.14,SSE,153,2.0,11.0,57,0.00,,CLR,0.00,VWS V14.01,2013-01-26 18:10:00,
2013-01-26 13:15:00,21.3,8.8,30.14,NNE,19,13.0,13.0,58,0.00,,CLR,0.00,VWS V14.01,2013-01-26 18:15:00,
2013-01-26 13:20:00,21.3,8.4,30.14,NNW,332,4.0,13.0,57,0.00,,CLR,0.00,VWS V14.01,2013-01-26 18:20:00,
2013-01-26 13:25:00,21.1,8.3,30.14,North,357,7.0,16.0,57,0.00,,CLR,0.00,VWS V14.01,2013-01-26 18:25:00,
2013-01-26 13:30:00,21.5,9.0,30.14,NNE,29,4.0,4.0,58,0.00,,CLR,0.00,VWS V14.01,2013-01-26 18:30:00,
2013-01-26 13:35:00,21.6,8.3,30.14,North,352,4.0,12.0,56,0.00,,CLR,0.00,VWS V14.01,2013-01-26 18:35:00,
2013-01-26 13:40:00,21.5,7.8,30.14,NNE,30,1.0,14.0,55,0.00,,CLR,0.00,VWS V14.01,2013-01-26 18:40:00,
2013-01-26 13:45:00,21.6,8.3,30.14,North,359,1.0,1.0,56,0.00,,CLR,0.00,VWS V14.01,2013-01-26 18:45:00,
2013-01-26 13:50:00,21.7,8.0,30.14,WSW,248,1.0,9.0,55,0.00,,CLR,0.00,VWS V14.01,2013-01-26 18:50:00,
2013-01-26 13:55:00,21.8,8.1,30.13,NNE,14,3.0,9.0,55,0.00,,CLR,0.00,VWS V14.01,2013-01-26 18:55:00,
2013-01-26 14:00:00,22.1,8.8,30.13,NNE,19,5.0,5.0,56,0.00,,CLR,0.00,VWS V14.01,2013-01-26 19:00:00,
2013-01-26 14:05:00,22.5,9.6,30.14,ENE,67,2.0,9.0,57,0.00,,CLR,0.00,VWS V14.01,2013-01-26 19:05:00,
2013-01-26 14:10:00,22.9,9.2,30.14,NNE,23,1.0,9.0,55,0.00,,CLR,0.00,VWS V14.01,2013-01-26 19:10:00,
2013-01-26 14:15:00,23.0,8.4,30.14,North,5,1.0,1.0,53,0.00,,CLR,0.00,VWS V14.01,2013-01-26 19:15:00,
2013-01-26 14:20:00,23.1,8.5,30.14,SE,131,2.0,11.0,53,0.00,,CLR,0.00,VWS V14.01,2013-01-26 19:20:00,
2013-01-26 14:25:00,23.4,8.4,30.15,NNW,344,4.0,11.0,52,0.00,,CLR,0.00,VWS V14.01,2013-01-26 19:25:00,
2013-01-26 14:30:00,23.4,8.4,30.15,WSW,246,2.0,2.0,52,0.00,,CLR,0.00,VWS V14.01,2013-01-26 19:30:00,
2013-01-26 14:35:00,23.8,9.6,30.15,WNW,297,2.0,8.0,54,0.00,,CLR,0.00,VWS V14.01,2013-01-26 19:35:00,
2013-01-26 14:40:00,23.9,9.3,30.15,NNW,328,4.0,8.0,53,0.00,,CLR,0.00,VWS V14.01,2013-01-26 19:40:00,
2013-01-26 14:45:00,23.9,9.7,30.15,NNW,328,2.0,2.0,54,0.00,,CLR,0.00,VWS V14.01,2013-01-26 19:45:00,
2013-01-26 14:50:00,23.9,9.7,30.15,ENE,61,2.0,8.0,54,0.00,,CLR,0.00,VWS V14.01,2013-01-26 19:50:00,
2013-01-26 14:55:00,24.0,9.8,30.16,NW,318,2.0,8.0,54,0.00,,CLR,0.00,VWS V14.01,2013-01-26 19:55:00,
2013-01-26 15:00:00,23.8,8.8,30.16,NNE,29,6.0,16.0,52,0.00,,CLR,0.00,VWS V14.01,2013-01-26 20:00:00,
2013-01-26 15:05:00,23.5,8.5,30.16,NNE,26,2.0,10.0,52,0.00,,CLR,0.00,VWS V14.01,2013-01-26 20:05:00,
2013-01-26 15:10:00,23.5,8.5,30.16,North,9,6.0,13.0,52,0.00,,CLR,0.00,VWS V14.01,2013-01-26 20:10:00,
2013-01-26 15:15:00,23.6,9.0,30.16,WSW,244,1.0,14.0,53,0.00,,CLR,0.00,VWS V14.01,2013-01-26 20:15:00,
2013-01-26 15:20:00,23.6,8.6,30.17,North,359,4.0,11.0,52,0.00,,CLR,0.00,VWS V14.01,2013-01-26 20:20:00,
2013-01-26 15:25:00,23.4,8.4,30.17,South,170,2.0,11.0,52,0.00,,CLR,0.00,VWS V14.01,2013-01-26 20:25:00,
2013-01-26 15:30:00,23.3,8.3,30.17,North,360,7.0,7.0,52,0.00,,CLR,0.00,VWS V14.01,2013-01-26 20:30:00,
2013-01-26 15:35:00,23.3,8.3,30.17,West,264,1.0,8.0,52,0.00,,CLR,0.00,VWS V14.01,2013-01-26 20:35:00,
2013-01-26 15:40:00,23.3,8.7,30.17,North,1,0.0,8.0,53,0.00,,CLR,0.00,VWS V14.01,2013-01-26 20:40:00,
2013-01-26 15:45:00,23.2,8.2,30.17,NW,306,9.0,9.0,52,0.00,,CLR,0.00,VWS V14.01,2013-01-26 20:45:00,
2013-01-26 15:50:00,22.9,8.3,30.17,North,356,3.0,9.0,53,0.00,,CLR,0.00,VWS V14.01,2013-01-26 20:50:00,
2013-01-26 15:55:00,22.7,8.1,30.17,NW,304,6.0,9.0,53,0.00,,CLR,0.00,VWS V14.01,2013-01-26 20:55:00,
2013-01-26 16:00:00,22.4,7.9,30.18,NE,53,1.0,9.0,53,0.00,,CLR,0.00,VWS V14.01,2013-01-26 21:00:00,
2013-01-26 16:05:00,22.2,7.3,30.18,SW,225,2.0,8.0,52,0.00,,BKN110,0.00,VWS V14.01,2013-01-26 21:05:00,
2013-01-26 16:10:00,22.0,7.5,30.19,West,260,1.0,9.0,53,0.00,,BKN110,0.00,VWS V14.01,2013-01-26 21:10:00,
2013-01-26 16:15:00,21.6,6.7,30.19,West,281,3.0,12.0,52,0.00,,BKN110,0.00,VWS V14.01,2013-01-26 21:15:00,
2013-01-26 16:20:00,21.2,6.3,30.19,NNW,339,4.0,8.0,52,0.00,,BKN110,0.00,VWS V14.01,2013-01-26 21:20:00,
2013-01-26 16:25:00,21.1,6.7,30.19,NW,324,6.0,11.0,53,0.00,,BKN110,0.00,VWS V14.01,2013-01-26 21:25:00,
2013-01-26 16:30:00,21.0,6.6,30.19,ESE,114,1.0,11.0,53,0.00,,BKN110,0.00,VWS V14.01,2013-01-26 21:30:00,
2013-01-26 16:35:00,20.8,6.4,30.19,NNE,23,1.0,14.0,53,0.00,,BKN110,0.00,VWS V14.01,2013-01-26 21:35:00,
2013-01-26 16:40:00,20.6,6.6,30.19,North,9,7.0,14.0,54,0.00,,BKN110,0.00,VWS V14.01,2013-01-26 21:40:00,
2013-01-26 16:45:00,20.5,6.9,30.19,NNW,333,2.0,14.0,55,0.00,,BKN110,0.00,VWS V14.01,2013-01-26 21:45:00,
2013-01-26 16:50:00,20.2,6.6,30.20,NNW,342,4.0,11.0,55,0.00,,BKN110,0.00,VWS V14.01,2013-01-26 21:50:00,
2013-01-26 16:55:00,20.0,6.8,30.20,North,359,4.0,11.0,56,0.00,,BKN110,0.00,VWS V14.01,2013-01-26 21:55:00,
2013-01-26 17:00:00,19.7,6.6,30.21,WNW,287,4.0,11.0,56,0.00,,BKN110,0.00,VWS V14.01,2013-01-26 22:00:00,
2013-01-26 17:05:00,19.6,6.5,30.21,North,9,3.0,10.0,56,0.00,,BKN050,0.00,VWS V14.01,2013-01-26 22:05:00,
2013-01-26 17:10:00,19.3,6.6,30.22,North,11,4.0,10.0,57,0.00,,BKN050,0.00,VWS V14.01,2013-01-26 22:10:00,
2013-01-26 17:15:00,19.2,6.5,30.22,NNW,328,1.0,10.0,57,0.00,,BKN050,0.00,VWS V14.01,2013-01-26 22:15:00,
2013-01-26 17:20:00,19.2,6.9,30.22,SE,127,5.0,9.0,58,0.00,,BKN050,0.00,VWS V14.01,2013-01-26 22:20:00,
2013-01-26 17:25:00,18.9,6.9,30.22,North,350,4.0,9.0,59,0.00,,BKN050,0.00,VWS V14.01,2013-01-26 22:25:00,
2013-01-26 17:30:00,18.8,6.9,30.22,NNE,15,4.0,10.0,59,0.00,,BKN050,0.00,VWS V14.01,2013-01-26 22:30:00,
2013-01-26 17:35:00,18.7,6.8,30.23,NW,321,0.0,11.0,59,0.00,,BKN050,0.00,VWS V14.01,2013-01-26 22:35:00,
2013-01-26 17:40:00,18.5,6.6,30.23,NNE,27,4.0,11.0,59,0.00,,BKN050,0.00,VWS V14.01,2013-01-26 22:40:00,
2013-01-26 17:45:00,18.5,6.6,30.24,North,1,3.0,11.0,59,0.00,,BKN050,0.00,VWS V14.01,2013-01-26 22:45:00,
2013-01-26 17:50:00,18.3,6.8,30.25,NNW,340,6.0,9.0,60,0.00,,BKN050,0.00,VWS V14.01,2013-01-26 22:50:00,
2013-01-26 17:55:00,18.3,6.8,30.25,NNE,24,4.0,10.0,60,0.00,,BKN050,0.00,VWS V14.01,2013-01-26 22:55:00,
2013-01-26 18:00:00,18.2,7.0,30.27,North,355,2.0,10.0,61,0.00,,BKN050,0.00,VWS V14.01,2013-01-26 23:00:00,
2013-01-26 18:05:00,18.1,6.9,30.25,NNE,23,3.0,9.0,61,0.00,,FEW095,0.00,VWS V14.01,2013-01-26 23:05:00,
2013-01-26 18:10:00,18.0,6.8,30.25,NW,312,0.0,9.0,61,0.00,,FEW095,0.00,VWS V14.01,2013-01-26 23:10:00,
2013-01-26 18:15:00,17.8,6.6,30.25,WSW,243,1.0,9.0,61,0.00,,FEW095,0.00,VWS V14.01,2013-01-26 23:15:00,
2013-01-26 18:20:00,17.7,6.6,30.26,ESE,113,3.0,5.0,61,0.00,,FEW095,0.00,VWS V14.01,2013-01-26 23:20:00,
2013-01-26 18:25:00,17.6,6.4,30.25,East,79,1.0,6.0,61,0.00,,FEW095,0.00,VWS V14.01,2013-01-26 23:25:00,
2013-01-26 18:30:00,17.5,6.4,30.25,WSW,253,1.0,8.0,61,0.00,,FEW095,0.00,VWS V14.01,2013-01-26 23:30:00,
2013-01-26 18:35:00,17.5,6.4,30.26,NNE,27,0.0,6.0,61,0.00,,FEW095,0.00,VWS V14.01,2013-01-26 23:35:00,
2013-01-26 18:40:00,17.3,6.5,30.27,NNE,25,2.0,6.0,62,0.00,,FEW095,0.00,VWS V14.01,2013-01-26 23:40:00,
2013-01-26 18:45:00,17.2,6.4,30.27,ENE,77,1.0,6.0,62,0.00,,FEW095,0.00,VWS V14.01,2013-01-26 23:45:00,
2013-01-26 18:50:00,17.2,6.4,30.27,North,6,0.0,3.0,62,0.00,,FEW095,0.00,VWS V14.01,2013-01-26 23:50:00,
2013-01-26 18:55:00,17.0,6.2,30.27,NW,316,2.0,7.0,62,0.00,,FEW095,0.00,VWS V14.01,2013-01-26 23:55:00,
2013-01-26 19:00:00,16.8,6.4,30.27,NW,311,2.0,7.0,63,0.00,,FEW095,0.00,VWS V14.01,2013-01-27 00:00:00,
2013-01-26 19:05:00,16.8,6.4,30.27,North,4,2.0,5.0,63,0.00,,CLR,0.00,VWS V14.01,2013-01-27 00:05:00,
2013-01-26 19:10:00,16.8,6.4,30.27,NNE,30,1.0,7.0,63,0.00,,CLR,0.00,VWS V14.01,2013-01-27 00:10:00,
2013-01-26 19:15:00,16.6,6.2,30.27,NE,34,1.0,7.0,63,0.00,,CLR,0.00,VWS V14.01,2013-01-27 00:15:00,
2013-01-26 19:20:00,16.6,6.2,30.27,NNW,344,0.0,6.0,63,0.00,,CLR,0.00,VWS V14.01,2013-01-27 00:20:00,
2013-01-26 19:25:00,16.4,6.0,30.28,NNE,23,1.0,6.0,63,0.00,,CLR,0.00,VWS V14.01,2013-01-27 00:25:00,
2013-01-26 19:30:00,16.4,6.0,30.28,East,83,1.0,6.0,63,0.00,,CLR,0.00,VWS V14.01,2013-01-27 00:30:00,
2013-01-26 19:35:00,16.4,6.0,30.28,NE,53,1.0,4.0,63,0.00,,CLR,0.00,VWS V14.01,2013-01-27 00:35:00,
2013-01-26 19:40:00,16.4,6.0,30.28,NNE,20,2.0,8.0,63,0.00,,CLR,0.00,VWS V14.01,2013-01-27 00:40:00,
2013-01-26 19:45:00,16.3,6.3,30.28,NE,47,5.0,8.0,64,0.00,,CLR,0.00,VWS V14.01,2013-01-27 00:45:00,
2013-01-26 19:50:00,16.3,6.3,30.29,ENE,61,2.0,6.0,64,0.00,,CLR,0.00,VWS V14.01,2013-01-27 00:50:00,
2013-01-26 19:55:00,16.2,6.2,30.29,NNE,27,4.0,9.0,64,0.00,,CLR,0.00,VWS V14.01,2013-01-27 00:55:00,
2013-01-26 19:59:00,16.2,6.2,30.29,WSW,246,3.0,9.0,64,0.00,,CLR,0.00,VWS V14.01,2013-01-27 00:59:00,
2013-01-26 20:04:00,16.0,6.0,30.29,North,355,1.0,6.0,64,0.00,,CLR,0.00,VWS V14.01,2013-01-27 01:04:00,
2013-01-26 20:09:00,15.9,6.2,30.29,WSW,256,1.0,8.0,65,0.00,,CLR,0.00,VWS V14.01,2013-01-27 01:09:00,
2013-01-26 20:14:00,15.8,6.1,30.29,NNW,329,1.0,8.0,65,0.00,,CLR,0.00,VWS V14.01,2013-01-27 01:14:00,
2013-01-26 20:19:00,15.8,6.1,30.29,North,3,2.0,8.0,65,0.00,,CLR,0.00,VWS V14.01,2013-01-27 01:19:00,
2013-01-26 20:24:00,15.8,6.1,30.29,NNE,27,4.0,8.0,65,0.00,,CLR,0.00,VWS V14.01,2013-01-27 01:24:00,
2013-01-26 20:29:00,15.8,6.1,30.29,WSW,243,0.0,8.0,65,0.00,,CLR,0.00,VWS V14.01,2013-01-27 01:29:00,
2013-01-26 20:34:00,15.8,6.1,30.30,NNW,335,3.0,9.0,65,0.00,,CLR,0.00,VWS V14.01,2013-01-27 01:34:00,
2013-01-26 20:39:00,15.8,6.1,30.30,WNW,283,2.0,9.0,65,0.00,,CLR,0.00,VWS V14.01,2013-01-27 01:39:00,
2013-01-26 20:44:00,15.7,6.4,30.30,NE,36,3.0,9.0,66,0.00,,CLR,0.00,VWS V14.01,2013-01-27 01:44:00,
2013-01-26 20:49:00,15.7,6.4,30.30,NW,322,1.0,7.0,66,0.00,,CLR,0.00,VWS V14.01,2013-01-27 01:49:00,
2013-01-26 20:54:00,15.6,6.3,30.30,WNW,293,1.0,7.0,66,0.00,,CLR,0.00,VWS V14.01,2013-01-27 01:54:00,
2013-01-26 20:59:00,15.6,6.3,30.31,WNW,283,5.0,7.0,66,0.00,,CLR,0.00,VWS V14.01,2013-01-27 01:59:00,
2013-01-26 21:04:00,15.6,6.3,30.31,WNW,300,2.0,7.0,66,0.00,,CLR,0.00,VWS V14.01,2013-01-27 02:04:00,
2013-01-26 21:09:00,15.5,6.5,30.31,ENE,58,2.0,7.0,67,0.00,,CLR,0.00,VWS V14.01,2013-01-27 02:09:00,
2013-01-26 21:14:00,15.4,6.4,30.32,NNW,330,4.0,9.0,67,0.00,,CLR,0.00,VWS V14.01,2013-01-27 02:14:00,
2013-01-26 21:19:00,15.4,6.4,30.32,ENE,57,3.0,9.0,67,0.00,,CLR,0.00,VWS V14.01,2013-01-27 02:19:00,
2013-01-26 21:24:00,15.3,6.3,30.32,North,349,2.0,9.0,67,0.00,,CLR,0.00,VWS V14.01,2013-01-27 02:24:00,
2013-01-26 21:29:00,15.3,6.3,30.32,ENE,71,2.0,9.0,67,0.00,,CLR,0.00,VWS V14.01,2013-01-27 02:29:00,
2013-01-26 21:34:00,15.2,6.2,30.32,NNE,20,3.0,9.0,67,0.00,,CLR,0.00,VWS V14.01,2013-01-27 02:34:00,
2013-01-26 21:39:00,15.1,6.5,30.32,NNE,13,1.0,9.0,68,0.00,,CLR,0.00,VWS V14.01,2013-01-27 02:39:00,
2013-01-26 21:44:00,15.0,6.4,30.33,NW,312,2.0,9.0,68,0.00,,CLR,0.00,VWS V14.01,2013-01-27 02:44:00,
2013-01-26 21:49:00,14.9,6.6,30.33,WSW,258,0.0,4.0,69,0.00,,CLR,0.00,VWS V14.01,2013-01-27 02:49:00,
2013-01-26 21:54:00,14.8,6.5,30.33,NE,43,4.0,8.0,69,0.00,,CLR,0.00,VWS V14.01,2013-01-27 02:54:00,
2013-01-26 21:59:00,14.8,6.5,30.33,NNE,17,2.0,8.0,69,0.00,,CLR,0.00,VWS V14.01,2013-01-27 02:59:00,
2013-01-26 22:04:00,14.8,6.5,30.33,North,358,1.0,6.0,69,0.00,,CLR,0.00,VWS V14.01,2013-01-27 03:04:00,
2013-01-26 22:09:00,14.8,6.8,30.33,WNW,283,2.0,10.0,70,0.00,,CLR,0.00,VWS V14.01,2013-01-27 03:09:00,
2013-01-26 22:14:00,14.7,6.7,30.34,NW,311,6.0,10.0,70,0.00,,CLR,0.00,VWS V14.01,2013-01-27 03:14:00,
2013-01-26 22:19:00,14.8,6.8,30.34,NNE,15,1.0,7.0,70,0.00,,CLR,0.00,VWS V14.01,2013-01-27 03:19:00,
2013-01-26 22:24:00,14.6,6.6,30.34,NNW,344,3.0,7.0,70,0.00,,CLR,0.00,VWS V14.01,2013-01-27 03:24:00,
2013-01-26 22:29:00,14.5,6.8,30.35,NNE,32,3.0,7.0,71,0.00,,CLR,0.00,VWS V14.01,2013-01-27 03:29:00,
2013-01-26 22:34:00,14.6,6.9,30.34,NW,312,1.0,8.0,71,0.00,,CLR,0.00,VWS V14.01,2013-01-27 03:34:00,
2013-01-26 22:39:00,14.4,7.0,30.35,NE,50,2.0,8.0,72,0.00,,CLR,0.00,VWS V14.01,2013-01-27 03:39:00,
2013-01-26 22:44:00,14.4,7.0,30.35,NE,52,2.0,8.0,72,0.00,,CLR,0.00,VWS V14.01,2013-01-27 03:44:00,
2013-01-26 22:49:00,14.3,6.9,30.35,ENE,65,1.0,9.0,72,0.00,,CLR,0.00,VWS V14.01,2013-01-27 03:49:00,
2013-01-26 22:54:00,14.3,6.9,30.35,NNW,345,0.0,9.0,72,0.00,,CLR,0.00,VWS V14.01,2013-01-27 03:54:00,
2013-01-26 22:59:00,14.3,7.2,30.35,NNE,27,4.0,9.0,73,0.00,,CLR,0.00,VWS V14.01,2013-01-27 03:59:00,
2013-01-26 23:04:00,14.3,7.2,30.36,NE,39,1.0,3.0,73,0.00,,CLR,0.00,VWS V14.01,2013-01-27 04:04:00,
2013-01-26 23:09:00,14.2,7.2,30.36,NNE,18,0.0,5.0,73,0.00,,CLR,0.00,VWS V14.01,2013-01-27 04:09:00,
2013-01-26 23:14:00,14.1,7.1,30.36,West,276,1.0,5.0,73,0.00,,CLR,0.00,VWS V14.01,2013-01-27 04:14:00,
2013-01-26 23:19:00,14.0,7.2,30.37,NNE,15,1.0,4.0,74,0.00,,CLR,0.00,VWS V14.01,2013-01-27 04:19:00,
2013-01-26 23:24:00,14.0,7.2,30.37,NE,54,1.0,4.0,74,0.00,,CLR,0.00,VWS V14.01,2013-01-27 04:24:00,
2013-01-26 23:29:00,13.9,7.2,30.37,NNE,15,0.0,4.0,74,0.00,,CLR,0.00,VWS V14.01,2013-01-27 04:29:00,
2013-01-26 23:34:00,13.8,7.1,30.37,WSW,253,0.0,5.0,74,0.00,,CLR,0.00,VWS V14.01,2013-01-27 04:34:00,
2013-01-26 23:39:00,13.8,7.4,30.37,NW,311,0.0,5.0,75,0.00,,CLR,0.00,VWS V14.01,2013-01-27 04:39:00,
2013-01-26 23:44:00,13.8,7.4,30.37,WSW,245,0.0,5.0,75,0.00,,CLR,0.00,VWS V14.01,2013-01-27 04:44:00,
2013-01-26 23:49:00,13.7,7.3,30.37,WNW,302,0.0,3.0,75,0.00,,CLR,0.00,VWS V14.01,2013-01-27 04:49:00,
2013-01-26 23:54:00,13.7,7.6,30.37,NNW,336,0.0,3.0,76,0.00,,CLR,0.00,VWS V14.01,2013-01-27 04:54:00,
2013-01-26 23:59:00,13.5,7.4,30.37,WNW,290,0.0,4.0,76,0.00,,CLR,0.00,VWS V14.01,2013-01-27 04:59:00,